createdAt,value
2023-05-09T00:00:10.961Z,100060.80
2023-05-09T00:02:58.743Z,100063.00
2023-05-09T00:05:26.843Z,100057.00
2023-05-09T00:07:54.504Z,100055.00
2023-05-09T00:10:22.368Z,100054.80
2023-05-09T00:12:50.725Z,100053.80
2023-05-09T00:15:19.196Z,100057.20
2023-05-09T00:17:47.925Z,100053.00
2023-05-09T00:20:15.694Z,100050.80
2023-05-09T00:22:43.549Z,100050.40
2023-05-09T00:25:12.262Z,100043.00
2023-05-09T00:27:40.306Z,100042.00
2023-05-09T00:30:08.953Z,100046.60
2023-05-09T00:32:37.157Z,100044.80
2023-05-09T00:35:05.629Z,100045.00
2023-05-09T00:37:33.238Z,100041.00
2023-05-09T00:40:00.917Z,100038.80
2023-05-09T00:42:28.590Z,100037.00
2023-05-09T00:44:56.586Z,100034.60
2023-05-09T00:47:24.341Z,100029.40
2023-05-09T00:49:52.600Z,100029.80
2023-05-09T00:52:25.855Z,100026.40
2023-05-09T00:54:55.570Z,100029.20
2023-05-09T00:57:23.627Z,100017.20
2023-05-09T00:59:51.453Z,100025.60
2023-05-09T01:02:19.785Z,100021.80
2023-05-09T01:04:48.398Z,100016.80
2023-05-09T01:08:13.202Z,100016.60
2023-05-09T01:11:06.654Z,100014.80
2023-05-09T01:14:01.520Z,100011.00
2023-05-09T01:17:02.713Z,100004.80
2023-05-09T01:20:00.197Z,100010.60
2023-05-09T01:22:35.929Z,100009.00
2023-05-09T01:25:30.495Z,100006.20
2023-05-09T01:28:12.745Z,100006.00
2023-05-09T01:30:45.768Z,100003.80
2023-05-09T01:33:20.422Z,100003.60
2023-05-09T01:35:59.236Z,100004.80
2023-05-09T01:38:30.813Z,100006.60
2023-05-09T01:41:00.674Z,100007.20
2023-05-09T01:43:31.359Z,100003.00
2023-05-09T01:45:59.984Z,100002.00
2023-05-09T01:48:31.445Z,99996.60
2023-05-09T01:51:01.693Z,99998.40
2023-05-09T01:53:30.912Z,99998.60
2023-05-09T01:56:00.796Z,100001.20
2023-05-09T01:58:31.567Z,99997.80
2023-05-09T02:01:00.986Z,99993.20
2023-05-09T02:03:29.026Z,100000.80
2023-05-09T02:05:57.858Z,99997.20
2023-05-09T02:08:27.749Z,99996.80
2023-05-09T02:10:55.503Z,100000.00
2023-05-09T02:13:23.382Z,99997.60
2023-05-09T02:15:52.083Z,99994.60
2023-05-09T02:18:19.830Z,99997.20
2023-05-09T02:20:48.385Z,99993.00
2023-05-09T02:23:16.091Z,99995.60
2023-05-09T02:25:44.564Z,99994.40
2023-05-09T02:28:13.613Z,99994.20
2023-05-09T02:30:45.796Z,99989.80
2023-05-09T02:33:14.255Z,99984.00
2023-05-09T02:35:46.442Z,99985.60
2023-05-09T02:38:14.791Z,99981.20
2023-05-09T02:40:44.460Z,99979.60
2023-05-09T02:43:12.361Z,99983.20
2023-05-09T02:45:40.267Z,99986.40
2023-05-09T02:48:09.115Z,99992.40
2023-05-09T02:50:42.777Z,99985.80
2023-05-09T02:53:10.528Z,99986.40
2023-05-09T02:55:38.201Z,99986.40
2023-05-09T02:58:13.244Z,99985.60
2023-05-09T03:00:43.033Z,99986.80
2023-05-09T03:03:11.407Z,99987.80
2023-05-09T03:05:39.435Z,99981.60
2023-05-09T03:08:07.183Z,99972.40
2023-05-09T03:10:35.374Z,99977.40
2023-05-09T03:13:03.120Z,99977.20
2023-05-09T03:15:30.889Z,99974.20
2023-05-09T03:17:58.526Z,99973.20
2023-05-09T03:20:27.570Z,99973.60
2023-05-09T03:22:55.501Z,99968.40
2023-05-09T03:25:23.953Z,99973.00
2023-05-09T03:27:51.654Z,99967.60
2023-05-09T03:30:19.635Z,99972.40
2023-05-09T03:32:47.449Z,99971.60
2023-05-09T03:35:15.646Z,99976.60
2023-05-09T03:37:43.611Z,99973.80
2023-05-09T03:40:11.786Z,99978.40
2023-05-09T03:42:39.522Z,99982.20
2023-05-09T03:45:08.108Z,99983.00
2023-05-09T03:47:35.915Z,99980.00
2023-05-09T03:50:04.270Z,99983.20
2023-05-09T03:52:31.972Z,99978.40
2023-05-09T03:54:59.654Z,99976.60
2023-05-09T03:57:27.652Z,99980.60
2023-05-09T03:59:55.364Z,99978.40
2023-05-09T04:02:23.888Z,99983.80
2023-05-09T04:04:52.858Z,99983.20
2023-05-09T04:07:20.881Z,99987.60
2023-05-09T04:09:49.533Z,99985.60
2023-05-09T04:12:17.215Z,99984.40
2023-05-09T04:14:48.203Z,99985.20
2023-05-09T04:17:16.654Z,99981.00
2023-05-09T04:19:44.436Z,99985.00
2023-05-09T04:22:12.616Z,99984.80
2023-05-09T04:24:40.640Z,99981.80
2023-05-09T04:27:09.060Z,99988.80
2023-05-09T04:29:37.193Z,99986.20
2023-05-09T04:32:05.376Z,99982.60
2023-05-09T04:34:33.345Z,99988.00
2023-05-09T04:37:01.146Z,99984.60
2023-05-09T04:39:30.459Z,99983.60
2023-05-09T04:41:58.113Z,99986.80
2023-05-09T04:44:25.694Z,99988.40
2023-05-09T04:46:55.139Z,99984.00
2023-05-09T04:49:22.824Z,99978.60
2023-05-09T04:51:51.612Z,99978.20
2023-05-09T04:54:19.215Z,99982.00
2023-05-09T04:56:47.893Z,99979.40
2023-05-09T04:59:17.215Z,99980.80
2023-05-09T05:01:44.903Z,99979.20
2023-05-09T05:04:12.625Z,99976.20
2023-05-09T05:06:40.459Z,99978.80
2023-05-09T05:09:08.190Z,99973.00
2023-05-09T05:11:35.907Z,99967.20
2023-05-09T05:14:03.581Z,99974.60
2023-05-09T05:16:31.400Z,99968.20
2023-05-09T05:18:59.172Z,99978.40
2023-05-09T05:21:26.868Z,99970.40
2023-05-09T05:23:54.588Z,99966.80
2023-05-09T05:26:22.183Z,99968.80
2023-05-09T05:28:55.472Z,99974.60
2023-05-09T05:31:23.566Z,99967.80
2023-05-09T05:33:51.280Z,99974.80
2023-05-09T05:36:19.030Z,99976.60
2023-05-09T05:38:46.720Z,99974.40
2023-05-09T05:41:15.787Z,99970.40
2023-05-09T05:43:45.519Z,99969.40
2023-05-09T05:46:13.343Z,99964.00
2023-05-09T05:48:41.486Z,99969.20
2023-05-09T05:51:09.192Z,99967.00
2023-05-09T05:53:36.830Z,99961.80
2023-05-09T05:56:05.109Z,99963.40
2023-05-09T05:58:32.915Z,99956.80
2023-05-09T06:01:00.904Z,99962.80
2023-05-09T06:03:28.729Z,99956.60
2023-05-09T06:05:57.176Z,99949.60
2023-05-09T06:08:24.920Z,99951.20
2023-05-09T06:10:52.681Z,99949.60
2023-05-09T06:13:20.368Z,99954.40
2023-05-09T06:15:48.249Z,99950.60
2023-05-09T06:18:15.946Z,99943.80
2023-05-09T06:20:43.636Z,99934.00
2023-05-09T06:23:11.358Z,99938.00
2023-05-09T06:25:39.021Z,99936.20
2023-05-09T06:28:07.317Z,99930.20
2023-05-09T06:30:34.925Z,99930.60
2023-05-09T06:33:02.761Z,99924.20
2023-05-09T06:35:36.895Z,99918.40
2023-05-09T06:38:06.834Z,99917.80
2023-05-09T06:40:34.603Z,99919.20
2023-05-09T06:43:03.570Z,99920.80
2023-05-09T06:45:31.578Z,99921.80
2023-05-09T06:48:00.255Z,99915.00
2023-05-09T06:50:29.762Z,99919.00
2023-05-09T06:52:58.527Z,99904.20
2023-05-09T06:55:27.991Z,99910.00
2023-05-09T06:58:18.260Z,99900.60
2023-05-09T07:00:54.587Z,99899.20
2023-05-09T07:03:24.130Z,99896.20
2023-05-09T07:05:52.605Z,99895.60
2023-05-09T07:08:21.075Z,99892.60
2023-05-09T07:10:48.747Z,99895.80
2023-05-09T07:13:17.093Z,99891.20
2023-05-09T07:15:46.102Z,99888.80
2023-05-09T07:18:28.679Z,99880.80
2023-05-09T07:20:58.148Z,99877.40
2023-05-09T07:23:30.804Z,99872.80
2023-05-09T07:25:59.570Z,99875.20
2023-05-09T07:28:28.137Z,99869.20
2023-05-09T07:30:59.447Z,99869.00
2023-05-09T07:33:27.043Z,99873.00
2023-05-09T07:35:54.774Z,99867.40
2023-05-09T07:38:22.587Z,99863.20
2023-05-09T07:40:50.247Z,99850.00
2023-05-09T07:43:17.868Z,99860.60
2023-05-09T07:45:47.229Z,99849.60
2023-05-09T07:48:15.422Z,99844.00
2023-05-09T07:50:43.517Z,99841.20
2023-05-09T07:53:11.750Z,99846.80
2023-05-09T07:55:40.423Z,99842.40
2023-05-09T07:58:08.150Z,99839.40
2023-05-09T08:00:36.128Z,99846.60
2023-05-09T08:03:03.864Z,99849.40
2023-05-09T08:05:31.684Z,99842.20
2023-05-09T08:07:59.892Z,99841.00
2023-05-09T08:10:30.642Z,99827.40
2023-05-09T08:12:58.284Z,99841.20
2023-05-09T08:15:26.117Z,99835.60
2023-05-09T08:17:53.853Z,99831.60
2023-05-09T08:20:21.656Z,99830.00
2023-05-09T08:22:49.425Z,99819.40
2023-05-09T08:25:18.366Z,99815.00
2023-05-09T08:27:46.166Z,99819.40
2023-05-09T08:30:15.146Z,99820.00
2023-05-09T08:32:43.158Z,99816.60
2023-05-09T08:35:10.941Z,99807.60
2023-05-09T08:37:38.594Z,99808.20
2023-05-09T08:40:07.873Z,99799.60
2023-05-09T08:42:38.586Z,99803.80
2023-05-09T08:45:10.977Z,99797.40
2023-05-09T08:47:39.235Z,99800.20
2023-05-09T08:50:11.869Z,99796.40
2023-05-09T08:52:40.016Z,99784.80
2023-05-09T08:55:08.325Z,99785.60
2023-05-09T08:57:36.101Z,99788.20
2023-05-09T09:00:11.250Z,99779.80
2023-05-09T09:02:42.240Z,99782.80
2023-05-09T09:05:23.904Z,99775.40
2023-05-09T09:07:59.676Z,99782.60
2023-05-09T09:10:32.559Z,99784.60
2023-05-09T09:13:05.013Z,99793.00
2023-05-09T09:15:38.762Z,99777.00
2023-05-09T09:18:10.257Z,99783.20
2023-05-09T09:20:49.945Z,99783.00
2023-05-09T09:23:24.294Z,99773.00
2023-05-09T09:26:01.160Z,99787.00
2023-05-09T09:28:30.928Z,99770.60
2023-05-09T09:30:58.836Z,99774.20
2023-05-09T09:33:29.160Z,99773.20
2023-05-09T09:35:57.662Z,99771.00
2023-05-09T09:38:26.931Z,99761.20
2023-05-09T09:40:57.538Z,99766.00
2023-05-09T09:43:31.200Z,99753.00
2023-05-09T09:46:04.706Z,99765.20
2023-05-09T09:48:36.388Z,99754.20
2023-05-09T09:51:12.791Z,99757.40
2023-05-09T09:53:42.468Z,99746.20
2023-05-09T09:56:11.783Z,99747.20
2023-05-09T09:58:39.664Z,99727.40
2023-05-09T10:01:21.881Z,99733.60
2023-05-09T10:03:49.709Z,99733.80
2023-05-09T10:06:18.592Z,99729.20
2023-05-09T10:08:49.359Z,99726.20
2023-05-09T10:11:17.078Z,99731.00
2023-05-09T10:13:54.649Z,99718.00
2023-05-09T10:16:42.708Z,99709.40
2023-05-09T10:19:13.881Z,99713.00
2023-05-09T10:21:43.227Z,99711.80
2023-05-09T10:24:11.845Z,99715.80
2023-05-09T10:26:49.385Z,99714.40
2023-05-09T10:29:23.738Z,99708.60
2023-05-09T10:31:59.066Z,99703.20
2023-05-09T10:34:33.099Z,99694.80
2023-05-09T10:37:22.349Z,99699.80
2023-05-09T10:39:53.742Z,99703.40
2023-05-09T10:42:23.951Z,99694.60
2023-05-09T10:44:57.445Z,99700.60
2023-05-09T10:47:32.022Z,99706.80
2023-05-09T10:50:00.751Z,99691.40
2023-05-09T10:52:33.678Z,99701.00
2023-05-09T10:55:05.243Z,99689.00
2023-05-09T10:57:32.940Z,99689.00
2023-05-09T11:00:02.002Z,99683.60
2023-05-09T11:02:39.313Z,99675.20
2023-05-09T11:05:39.912Z,99675.40
2023-05-09T11:08:42.210Z,99676.00
2023-05-09T11:11:26.919Z,99672.20
2023-05-09T11:13:58.095Z,99679.00
2023-05-09T11:16:26.652Z,99674.80
2023-05-09T11:18:54.712Z,99675.80
2023-05-09T11:21:22.893Z,99671.20
2023-05-09T11:23:52.990Z,99663.80
2023-05-09T11:26:23.715Z,99664.80
2023-05-09T11:28:54.006Z,99661.00
2023-05-09T11:31:21.960Z,99649.40
2023-05-09T11:33:56.303Z,99659.40
2023-05-09T11:36:27.985Z,99643.60
2023-05-09T11:39:11.469Z,99647.40
2023-05-09T11:41:43.759Z,99645.60
2023-05-09T11:44:22.393Z,99644.60
2023-05-09T11:46:50.201Z,99631.20
2023-05-09T11:49:19.754Z,99637.60
2023-05-09T11:51:47.582Z,99619.20
2023-05-09T11:54:15.604Z,99621.40
2023-05-09T11:56:43.816Z,99622.20
2023-05-09T11:59:14.556Z,99622.20
2023-05-09T12:01:42.680Z,99619.20
2023-05-09T12:04:10.523Z,99624.80
2023-05-09T12:06:39.413Z,99612.80
2023-05-09T12:09:10.357Z,99601.40
2023-05-09T12:11:38.586Z,99603.20
2023-05-09T12:14:06.349Z,99608.80
2023-05-09T12:16:34.167Z,99600.00
2023-05-09T12:19:02.108Z,99595.00
2023-05-09T12:21:30.042Z,99589.40
2023-05-09T12:23:57.912Z,99589.80
2023-05-09T12:26:27.604Z,99596.20
2023-05-09T12:28:55.730Z,99584.00
2023-05-09T12:31:23.724Z,99584.60
2023-05-09T12:33:51.609Z,99570.40
2023-05-09T12:36:19.544Z,99582.40
2023-05-09T12:38:56.782Z,99565.20
2023-05-09T12:43:57.250Z,99572.00
2023-05-09T12:46:25.739Z,99570.60
2023-05-09T12:48:54.630Z,99554.20
2023-05-09T12:51:25.171Z,99551.40
2023-05-09T12:53:54.697Z,99541.80
2023-05-09T12:56:34.764Z,99541.20
2023-05-09T12:59:02.679Z,99553.00
2023-05-09T13:01:30.882Z,99546.00
2023-05-09T13:04:05.135Z,99540.80
2023-05-09T13:06:34.826Z,99537.60
2023-05-09T13:09:06.314Z,99542.60
2023-05-09T13:11:35.409Z,99543.00
2023-05-09T13:14:04.293Z,99524.40
2023-05-09T13:16:32.607Z,99537.60
2023-05-09T13:19:02.330Z,99530.40
2023-05-09T13:21:30.069Z,99532.60
2023-05-09T13:23:57.811Z,99517.60
2023-05-09T13:26:27.374Z,99527.60
2023-05-09T13:28:56.012Z,99529.40
2023-05-09T13:31:24.475Z,99523.00
2023-05-09T13:33:52.917Z,99517.60
2023-05-09T13:36:21.291Z,99519.80
2023-05-09T13:38:49.322Z,99517.20
2023-05-09T13:41:20.908Z,99507.60
2023-05-09T13:43:48.819Z,99507.00
2023-05-09T13:46:16.724Z,99505.80
2023-05-09T13:48:52.047Z,99502.20
2023-05-09T13:51:21.422Z,99495.20
2023-05-09T13:53:51.655Z,99506.40
2023-05-09T13:56:19.678Z,99498.00
2023-05-09T13:58:47.329Z,99501.20
2023-05-09T14:01:15.919Z,99490.60
2023-05-09T14:03:44.741Z,99489.00
2023-05-09T14:06:15.312Z,99488.20
2023-05-09T14:08:43.351Z,99478.80
2023-05-09T14:11:11.051Z,99482.80
2023-05-09T14:13:38.725Z,99472.40
2023-05-09T14:16:06.831Z,99483.60
2023-05-09T14:18:35.356Z,99477.00
2023-05-09T14:21:03.138Z,99477.00
2023-05-09T14:23:31.310Z,99467.80
2023-05-09T14:25:59.460Z,99460.40
2023-05-09T14:28:27.358Z,99465.60
2023-05-09T14:30:55.070Z,99461.40
2023-05-09T14:33:23.036Z,99457.60
2023-05-09T14:35:50.680Z,99455.60
2023-05-09T14:38:18.268Z,99461.60
2023-05-09T14:40:45.932Z,99456.40
2023-05-09T14:43:13.778Z,99459.40
2023-05-09T14:45:41.404Z,99453.80
2023-05-09T14:48:09.115Z,99446.00
2023-05-09T14:50:36.871Z,99437.40
2023-05-09T14:53:04.973Z,99441.20
2023-05-09T14:55:32.833Z,99435.80
2023-05-09T14:58:00.555Z,99442.40
2023-05-09T15:00:29.263Z,99448.40
2023-05-09T15:02:57.867Z,99438.60
2023-05-09T15:05:25.763Z,99445.80
2023-05-09T15:07:53.738Z,99441.40
2023-05-09T15:10:21.702Z,99441.40
2023-05-09T15:12:49.421Z,99443.40
2023-05-09T15:15:21.199Z,99449.20
2023-05-09T15:17:49.641Z,99437.60
2023-05-09T15:20:18.426Z,99429.80
2023-05-09T15:22:49.826Z,99418.80
2023-05-09T15:25:18.087Z,99421.20
2023-05-09T15:27:45.974Z,99410.60
2023-05-09T15:30:14.421Z,99411.20
2023-05-09T15:32:42.589Z,99410.40
2023-05-09T15:35:11.055Z,99404.40
2023-05-09T15:37:38.814Z,99408.20
2023-05-09T15:40:08.321Z,99408.40
2023-05-09T15:42:37.667Z,99401.80
2023-05-09T15:45:06.518Z,99399.00
2023-05-09T15:47:34.280Z,99387.60
2023-05-09T15:50:01.988Z,99391.40
2023-05-09T15:52:29.742Z,99396.00
2023-05-09T15:54:58.235Z,99394.40
2023-05-09T15:57:26.156Z,99387.00
2023-05-09T15:59:56.068Z,99398.00
2023-05-09T16:02:24.786Z,99391.20
2023-05-09T16:04:52.960Z,99373.80
2023-05-09T16:07:20.940Z,99378.80
2023-05-09T16:09:48.943Z,99372.60
2023-05-09T16:12:16.726Z,99374.60
2023-05-09T16:14:44.527Z,99364.80
2023-05-09T16:17:12.663Z,99365.40
2023-05-09T16:19:41.181Z,99365.40
2023-05-09T16:22:08.977Z,99370.00
2023-05-09T16:24:37.715Z,99364.60
2023-05-09T16:27:05.497Z,99362.60
2023-05-09T16:29:33.221Z,99362.20
2023-05-09T16:32:01.144Z,99357.20
2023-05-09T16:34:29.395Z,99360.00
2023-05-09T16:36:57.039Z,99357.20
2023-05-09T16:39:28.012Z,99351.40
2023-05-09T16:41:55.853Z,99354.40
2023-05-09T16:44:25.881Z,99354.80
2023-05-09T16:46:53.731Z,99345.00
2023-05-09T16:49:21.388Z,99341.40
2023-05-09T16:51:49.326Z,99337.40
2023-05-09T16:54:17.179Z,99337.60
2023-05-09T16:56:44.955Z,99338.60
2023-05-09T16:59:13.290Z,99335.40
2023-05-09T17:01:41.955Z,99336.80
2023-05-09T17:04:10.073Z,99330.80
2023-05-09T17:06:37.773Z,99332.20
2023-05-09T17:09:05.908Z,99327.80
2023-05-09T17:11:33.642Z,99319.60
2023-05-09T17:14:03.351Z,99322.40
2023-05-09T17:16:31.006Z,99318.40
2023-05-09T17:18:59.166Z,99320.60
2023-05-09T17:21:26.911Z,99317.80
2023-05-09T17:23:54.689Z,99321.40
2023-05-09T17:26:22.822Z,99322.00
2023-05-09T17:28:50.682Z,99321.40
2023-05-09T17:31:18.404Z,99321.20
2023-05-09T17:33:46.116Z,99318.60
2023-05-09T17:36:13.758Z,99315.00
2023-05-09T17:38:41.363Z,99317.20
2023-05-09T17:41:09.372Z,99317.40
2023-05-09T17:43:37.221Z,99316.40
2023-05-09T17:46:05.029Z,99321.40
2023-05-09T17:48:32.635Z,99322.20
2023-05-09T17:51:00.589Z,99324.00
2023-05-09T17:53:28.235Z,99328.60
2023-05-09T17:55:57.279Z,99323.80
2023-05-09T17:58:25.434Z,99322.00
2023-05-09T18:00:55.112Z,99319.40
2023-05-09T18:03:23.581Z,99317.40
2023-05-09T18:05:51.739Z,99318.00
2023-05-09T18:08:19.392Z,99316.40
2023-05-09T18:10:47.266Z,99313.60
2023-05-09T18:13:14.982Z,99315.40
2023-05-09T18:15:42.653Z,99316.80
2023-05-09T18:18:12.214Z,99318.80
2023-05-09T18:20:42.178Z,99318.80
2023-05-09T18:23:10.443Z,99317.20
2023-05-09T18:25:38.849Z,99320.00
2023-05-09T18:28:06.528Z,99315.00
2023-05-09T18:30:35.112Z,99314.20
2023-05-09T18:33:03.121Z,99319.40
2023-05-09T18:35:32.161Z,99318.80
2023-05-09T18:37:59.912Z,99324.00
2023-05-09T18:40:27.970Z,99318.00
2023-05-09T18:42:55.576Z,99323.00
2023-05-09T18:45:23.358Z,99324.40
2023-05-09T18:47:51.182Z,99323.40
2023-05-09T18:50:19.332Z,99324.00
2023-05-09T18:52:47.268Z,99325.20
2023-05-09T18:55:15.377Z,99324.60
2023-05-09T18:57:43.042Z,99322.80
2023-05-09T19:00:12.700Z,99328.00
2023-05-09T19:02:40.441Z,99334.40
2023-05-09T19:05:09.452Z,99331.00
2023-05-09T19:07:38.734Z,99324.00
2023-05-09T19:10:09.843Z,99323.40
2023-05-09T19:12:37.675Z,99319.40
2023-05-09T19:15:06.110Z,99328.00
2023-05-09T19:17:33.820Z,99327.40
2023-05-09T19:20:02.595Z,99326.40
2023-05-09T19:22:30.318Z,99324.60
2023-05-09T19:24:58.712Z,99324.40
2023-05-09T19:27:26.476Z,99324.60
2023-05-09T19:29:54.136Z,99317.40
2023-05-09T19:32:22.277Z,99318.00
2023-05-09T19:34:49.983Z,99313.00
2023-05-09T19:37:17.624Z,99318.00
2023-05-09T19:39:45.290Z,99319.60
2023-05-09T19:42:13.170Z,99321.00
2023-05-09T19:44:40.820Z,99313.20
2023-05-09T19:47:09.087Z,99309.40
2023-05-09T19:49:36.867Z,99312.20
2023-05-09T19:52:04.858Z,99311.00
2023-05-09T19:54:36.380Z,99312.00
2023-05-09T19:57:06.606Z,99308.00
2023-05-09T19:59:34.389Z,99316.80
2023-05-09T20:02:02.524Z,99317.40
2023-05-09T20:04:36.676Z,99313.20
2023-05-09T20:07:05.189Z,99307.20
2023-05-09T20:09:33.312Z,99305.80
2023-05-09T20:12:04.524Z,99305.60
2023-05-09T20:14:32.339Z,99304.40
2023-05-09T20:17:00.009Z,99300.20
2023-05-09T20:19:27.914Z,99297.80
2023-05-09T20:21:56.089Z,99293.80
2023-05-09T20:24:23.724Z,99293.60
2023-05-09T20:26:51.485Z,99291.00
2023-05-09T20:29:19.169Z,99296.60
2023-05-09T20:31:47.474Z,99293.20
2023-05-09T20:34:17.812Z,99292.20
2023-05-09T20:36:51.354Z,99290.00
2023-05-09T20:39:20.667Z,99287.20
2023-05-09T20:41:50.242Z,99286.20
2023-05-09T20:44:18.463Z,99291.00
2023-05-09T20:46:46.487Z,99286.40
2023-05-09T20:49:15.454Z,99287.20
2023-05-09T20:51:43.243Z,99284.20
2023-05-09T20:54:10.888Z,99281.20
2023-05-09T20:56:38.528Z,99285.00
2023-05-09T20:59:06.201Z,99279.40
2023-05-09T21:01:37.361Z,99280.00
2023-05-09T21:04:05.801Z,99282.00
2023-05-09T21:06:37.037Z,99279.60
2023-05-09T21:09:06.253Z,99270.60
2023-05-09T21:11:33.967Z,99273.40
2023-05-09T21:14:01.614Z,99271.40
2023-05-09T21:16:29.552Z,99273.20
2023-05-09T21:18:58.721Z,99272.60
2023-05-09T21:21:26.386Z,99271.60
2023-05-09T21:23:54.484Z,99268.60
2023-05-09T21:26:23.169Z,99269.60
2023-05-09T21:28:51.169Z,99263.40
2023-05-09T21:31:18.795Z,99263.80
2023-05-09T21:33:46.663Z,99260.60
2023-05-09T21:36:14.299Z,99266.40
2023-05-09T21:38:42.038Z,99261.60
2023-05-09T21:41:10.184Z,99260.20
2023-05-09T21:43:37.830Z,99260.60
2023-05-09T21:46:06.114Z,99264.60
2023-05-09T21:48:33.937Z,99261.20
2023-05-09T21:51:03.013Z,99258.00
2023-05-09T21:53:30.824Z,99256.00
2023-05-09T21:55:58.480Z,99256.20
2023-05-09T21:58:26.152Z,99262.80
2023-05-09T22:00:53.712Z,99251.00
2023-05-09T22:03:21.396Z,99252.20
2023-05-09T22:05:49.243Z,99253.80
2023-05-09T22:08:16.814Z,99249.00
2023-05-09T22:10:44.436Z,99251.60
2023-05-09T22:13:12.036Z,99249.20
2023-05-09T22:15:39.696Z,99253.80
2023-05-09T22:18:08.202Z,99251.40
2023-05-09T22:20:35.884Z,99250.60
2023-05-09T22:23:03.503Z,99248.20
2023-05-09T22:25:31.161Z,99246.80
2023-05-09T22:27:58.951Z,99245.40
2023-05-09T22:30:26.733Z,99246.00
2023-05-09T22:32:54.463Z,99243.00
2023-05-09T22:35:22.150Z,99238.20
2023-05-09T22:37:49.786Z,99233.00
2023-05-09T22:40:17.827Z,99234.80
2023-05-09T22:42:45.645Z,99241.60
2023-05-09T22:45:13.319Z,99231.60
2023-05-09T22:47:41.401Z,99234.20
2023-05-09T22:50:09.514Z,99225.80
2023-05-09T22:52:37.176Z,99229.80
2023-05-09T22:55:05.428Z,99227.40
2023-05-09T22:57:32.990Z,99227.60
2023-05-09T23:00:01.200Z,99226.20
2023-05-09T23:02:28.908Z,99228.00
2023-05-09T23:04:56.844Z,99234.00
2023-05-09T23:07:24.419Z,99229.60
2023-05-09T23:09:52.120Z,99229.20
2023-05-09T23:12:19.773Z,99227.00
2023-05-09T23:14:47.411Z,99223.20
2023-05-09T23:17:15.118Z,99218.80
2023-05-09T23:19:43.066Z,99222.20
2023-05-09T23:22:11.435Z,99221.20
2023-05-09T23:24:39.006Z,99216.20
2023-05-09T23:27:06.997Z,99221.80
2023-05-09T23:29:34.632Z,99222.20
2023-05-09T23:32:02.301Z,99222.60
2023-05-09T23:34:30.924Z,99218.80
2023-05-09T23:36:58.494Z,99219.80
2023-05-09T23:39:26.505Z,99218.00
2023-05-09T23:41:54.179Z,99217.60
2023-05-09T23:44:22.079Z,99215.80
2023-05-09T23:46:49.870Z,99215.80
2023-05-09T23:49:17.485Z,99207.20
2023-05-09T23:51:45.128Z,99208.20
2023-05-09T23:54:12.715Z,99208.60
2023-05-09T23:56:40.852Z,99211.00
2023-05-09T23:59:08.466Z,99206.80
